Terminal Aerodrome Forecast
Issued by NWS

Home | Current Version | Previous Version | Text Only | Print | Product List | Glossary On
Versions: 1 2 3 4 5 6 7 8 9 10 11 12 13 14 15 16 17 18 19 20 21 22 23 24 25
616
FTUS45 KBYZ 130529
TAFLVM
TAF
KLVM 130529Z 1306/1406 22020G30KT P6SM FEW100
     FM131700 25020G35KT P6SM VCSH SCT020 BKN050
     FM132100 27030G50KT P6SM BKN050
     FM140300 24025G35KT P6SM BKN050=

USA.gov is the U.S. government's official web portal to all federal, state and local government web resources and services.